Terminal Aerodrome Forecast
Issued by NWS

Home | Current Version | Previous Version | Text Only | Print | Product List | Glossary On
Versions: 1 2 3 4 5 6 7 8 9 10 11 12 13 14 15 16 17 18 19 20
000
FTUS43 KLSX 201400 AAA
TAFCPS
TAF AMD
KCPS 201437Z 2015/2112 09010KT 6SM -RA BR OVC035
     FM201800 06010KT 5SM -RA BR BKN014 OVC030
     FM202100 04009KT 5SM BR BKN015 OVC030
     FM210300 35005KT 6SM BR BKN020 OVC050=

USA.gov is the U.S. government's official web portal to all federal, state and local government web resources and services.